sensor_id;sensor_type;location;lat;lon;timestamp;temperature;humidity
13960;DHT22;7052;51.050;3.716;2023-08-06T00:00:24;15.00;99.90
13960;DHT22;7052;51.050;3.716;2023-08-06T00:02:53;14.90;99.90
13960;DHT22;7052;51.050;3.716;2023-08-06T00:05:20;14.90;99.90
13960;DHT22;7052;51.050;3.716;2023-08-06T00:07:47;14.90;99.90
13960;DHT22;7052;51.050;3.716;2023-08-06T00:10:15;15.00;99.90
13960;DHT22;7052;51.050;3.716;2023-08-06T00:12:43;14.90;99.90
13960;DHT22;7052;51.050;3.716;2023-08-06T00:15:12;15.00;99.90
13960;DHT22;7052;51.050;3.716;2023-08-06T00:17:40;15.00;99.90
13960;DHT22;7052;51.050;3.716;2023-08-06T00:20:10;15.00;99.90
13960;DHT22;7052;51.050;3.716;2023-08-06T00:22:38;15.10;99.90
13960;DHT22;7052;51.050;3.716;2023-08-06T00:25:06;15.10;99.90
13960;DHT22;7052;51.050;3.716;2023-08-06T00:27:33;15.10;99.90
13960;DHT22;7052;51.050;3.716;2023-08-06T00:30:02;15.10;99.90
13960;DHT22;7052;51.050;3.716;2023-08-06T00:32:29;15.20;99.90
13960;DHT22;7052;51.050;3.716;2023-08-06T00:34:58;15.20;99.90
13960;DHT22;7052;51.050;3.716;2023-08-06T00:37:27;15.20;99.90
13960;DHT22;7052;51.050;3.716;2023-08-06T00:39:54;15.20;99.90
13960;DHT22;7052;51.050;3.716;2023-08-06T00:42:21;15.20;99.90
13960;DHT22;7052;51.050;3.716;2023-08-06T00:44:51;15.20;99.90
13960;DHT22;7052;51.050;3.716;2023-08-06T00:47:20;15.20;99.90
13960;DHT22;7052;51.050;3.716;2023-08-06T00:49:48;15.20;99.90
13960;DHT22;7052;51.050;3.716;2023-08-06T00:52:15;15.20;99.90
13960;DHT22;7052;51.050;3.716;2023-08-06T00:54:47;15.20;99.90
13960;DHT22;7052;51.050;3.716;2023-08-06T00:57:14;15.20;99.90
13960;DHT22;7052;51.050;3.716;2023-08-06T00:59:41;15.20;99.90
13960;DHT22;7052;51.050;3.716;2023-08-06T01:02:08;15.20;99.90
13960;DHT22;7052;51.050;3.716;2023-08-06T01:04:35;15.30;99.90
13960;DHT22;7052;51.050;3.716;2023-08-06T01:07:11;15.30;99.90
13960;DHT22;7052;51.050;3.716;2023-08-06T01:09:53;15.30;99.90
13960;DHT22;7052;51.050;3.716;2023-08-06T01:12:32;15.30;99.90
13960;DHT22;7052;51.050;3.716;2023-08-06T01:15:10;15.30;99.90
13960;DHT22;7052;51.050;3.716;2023-08-06T01:17:39;15.30;99.90
13960;DHT22;7052;51.050;3.716;2023-08-06T01:20:14;15.30;99.90
13960;DHT22;7052;51.050;3.716;2023-08-06T01:22:42;15.30;99.90
13960;DHT22;7052;51.050;3.716;2023-08-06T01:25:09;15.30;99.90
13960;DHT22;7052;51.050;3.716;2023-08-06T01:27:44;15.30;99.90
13960;DHT22;7052;51.050;3.716;2023-08-06T01:30:15;15.30;99.90
13960;DHT22;7052;51.050;3.716;2023-08-06T01:32:45;15.30;99.90
13960;DHT22;7052;51.050;3.716;2023-08-06T01:35:16;15.30;99.90
13960;DHT22;7052;51.050;3.716;2023-08-06T01:37:47;15.30;99.90
13960;DHT22;7052;51.050;3.716;2023-08-06T01:40:16;15.30;99.90
13960;DHT22;7052;51.050;3.716;2023-08-06T01:42:43;15.30;99.90
13960;DHT22;7052;51.050;3.716;2023-08-06T01:45:12;15.30;99.90
13960;DHT22;7052;51.050;3.716;2023-08-06T01:47:46;15.40;99.90
13960;DHT22;7052;51.050;3.716;2023-08-06T01:50:13;15.30;99.90
13960;DHT22;7052;51.050;3.716;2023-08-06T01:52:44;15.40;99.90
13960;DHT22;7052;51.050;3.716;2023-08-06T01:55:14;15.30;99.90
13960;DHT22;7052;51.050;3.716;2023-08-06T01:57:42;15.20;99.90
13960;DHT22;7052;51.050;3.716;2023-08-06T02:00:10;15.30;99.90
13960;DHT22;7052;51.050;3.716;2023-08-06T02:02:37;15.30;99.90
13960;DHT22;7052;51.050;3.716;2023-08-06T02:05:06;15.40;99.90
13960;DHT22;7052;51.050;3.716;2023-08-06T02:07:33;15.40;99.90
13960;DHT22;7052;51.050;3.716;2023-08-06T02:10:00;15.40;99.90
13960;DHT22;7052;51.050;3.716;2023-08-06T02:12:31;15.50;99.90
13960;DHT22;7052;51.050;3.716;2023-08-06T02:14:58;15.40;99.90
13960;DHT22;7052;51.050;3.716;2023-08-06T02:17:24;15.40;99.90
13960;DHT22;7052;51.050;3.716;2023-08-06T02:19:51;15.50;99.90
13960;DHT22;7052;51.050;3.716;2023-08-06T02:22:27;15.50;99.90
13960;DHT22;7052;51.050;3.716;2023-08-06T02:24:57;15.50;99.90
13960;DHT22;7052;51.050;3.716;2023-08-06T02:27:24;15.60;99.90
13960;DHT22;7052;51.050;3.716;2023-08-06T02:29:53;15.50;99.90
13960;DHT22;7052;51.050;3.716;2023-08-06T02:32:19;15.60;99.90
13960;DHT22;7052;51.050;3.716;2023-08-06T02:34:46;15.60;99.90
13960;DHT22;7052;51.050;3.716;2023-08-06T02:37:14;15.60;99.90
13960;DHT22;7052;51.050;3.716;2023-08-06T02:39:42;15.70;99.90
13960;DHT22;7052;51.050;3.716;2023-08-06T02:42:12;15.70;99.90
13960;DHT22;7052;51.050;3.716;2023-08-06T02:44:39;15.70;99.90
13960;DHT22;7052;51.050;3.716;2023-08-06T02:47:08;15.60;99.90
13960;DHT22;7052;51.050;3.716;2023-08-06T02:49:37;15.50;99.90
13960;DHT22;7052;51.050;3.716;2023-08-06T02:52:05;15.40;99.90
13960;DHT22;7052;51.050;3.716;2023-08-06T02:54:33;15.40;99.90
13960;DHT22;7052;51.050;3.716;2023-08-06T02:57:01;15.30;99.90
13960;DHT22;7052;51.050;3.716;2023-08-06T02:59:28;15.30;99.90
13960;DHT22;7052;51.050;3.716;2023-08-06T03:01:56;15.30;99.90
13960;DHT22;7052;51.050;3.716;2023-08-06T03:04:24;15.20;99.90
13960;DHT22;7052;51.050;3.716;2023-08-06T03:06:51;15.20;99.90
13960;DHT22;7052;51.050;3.716;2023-08-06T03:09:19;15.10;99.90
13960;DHT22;7052;51.050;3.716;2023-08-06T03:11:48;15.00;99.90
13960;DHT22;7052;51.050;3.716;2023-08-06T03:14:15;14.90;99.90
13960;DHT22;7052;51.050;3.716;2023-08-06T03:16:42;14.90;99.90
13960;DHT22;7052;51.050;3.716;2023-08-06T03:19:10;14.80;99.90
13960;DHT22;7052;51.050;3.716;2023-08-06T03:21:39;14.70;99.90
13960;DHT22;7052;51.050;3.716;2023-08-06T03:24:06;14.50;99.90
13960;DHT22;7052;51.050;3.716;2023-08-06T03:26:36;14.40;99.90
13960;DHT22;7052;51.050;3.716;2023-08-06T03:29:04;14.30;99.90
13960;DHT22;7052;51.050;3.716;2023-08-06T03:31:32;14.20;99.90
13960;DHT22;7052;51.050;3.716;2023-08-06T03:33:58;14.20;99.90
13960;DHT22;7052;51.050;3.716;2023-08-06T03:36:28;14.10;99.90
13960;DHT22;7052;51.050;3.716;2023-08-06T03:38:59;14.10;99.90
13960;DHT22;7052;51.050;3.716;2023-08-06T03:41:28;14.10;99.90
13960;DHT22;7052;51.050;3.716;2023-08-06T03:43:55;14.10;99.90
13960;DHT22;7052;51.050;3.716;2023-08-06T03:46:24;14.10;99.90
13960;DHT22;7052;51.050;3.716;2023-08-06T03:48:52;14.10;99.90
13960;DHT22;7052;51.050;3.716;2023-08-06T03:51:19;14.10;99.90
13960;DHT22;7052;51.050;3.716;2023-08-06T03:53:46;14.00;99.90
13960;DHT22;7052;51.050;3.716;2023-08-06T03:56:15;14.00;99.90
13960;DHT22;7052;51.050;3.716;2023-08-06T03:58:43;14.00;99.90
13960;DHT22;7052;51.050;3.716;2023-08-06T04:01:10;14.00;99.90
13960;DHT22;7052;51.050;3.716;2023-08-06T04:03:38;13.90;99.90
13960;DHT22;7052;51.050;3.716;2023-08-06T04:06:05;13.90;99.90
13960;DHT22;7052;51.050;3.716;2023-08-06T04:08:34;13.80;99.90
13960;DHT22;7052;51.050;3.716;2023-08-06T04:11:02;13.80;99.90
13960;DHT22;7052;51.050;3.716;2023-08-06T04:13:32;13.80;99.90
13960;DHT22;7052;51.050;3.716;2023-08-06T04:16:01;13.80;99.90
13960;DHT22;7052;51.050;3.716;2023-08-06T04:18:29;13.80;99.90
13960;DHT22;7052;51.050;3.716;2023-08-06T04:20:56;13.80;99.90
13960;DHT22;7052;51.050;3.716;2023-08-06T04:23:24;13.70;99.90
13960;DHT22;7052;51.050;3.716;2023-08-06T04:25:51;13.70;99.90
13960;DHT22;7052;51.050;3.716;2023-08-06T04:28:19;13.70;99.90
13960;DHT22;7052;51.050;3.716;2023-08-06T04:30:47;13.70;99.90
13960;DHT22;7052;51.050;3.716;2023-08-06T04:33:14;13.70;99.90
13960;DHT22;7052;51.050;3.716;2023-08-06T04:35:45;13.60;99.90
13960;DHT22;7052;51.050;3.716;2023-08-06T04:38:12;13.60;99.90
13960;DHT22;7052;51.050;3.716;2023-08-06T04:40:40;13.60;99.90
13960;DHT22;7052;51.050;3.716;2023-08-06T04:43:07;13.60;99.90
13960;DHT22;7052;51.050;3.716;2023-08-06T04:45:37;13.50;99.90
13960;DHT22;7052;51.050;3.716;2023-08-06T04:48:07;13.50;99.90
13960;DHT22;7052;51.050;3.716;2023-08-06T04:50:34;13.50;99.90
13960;DHT22;7052;51.050;3.716;2023-08-06T04:53:01;13.50;99.90
13960;DHT22;7052;51.050;3.716;2023-08-06T04:55:28;13.40;99.90
13960;DHT22;7052;51.050;3.716;2023-08-06T04:57:56;13.40;99.90
13960;DHT22;7052;51.050;3.716;2023-08-06T05:00:23;13.40;99.90
13960;DHT22;7052;51.050;3.716;2023-08-06T05:02:51;13.40;99.90
13960;DHT22;7052;51.050;3.716;2023-08-06T05:05:22;13.40;99.90
13960;DHT22;7052;51.050;3.716;2023-08-06T05:07:53;13.40;99.90
13960;DHT22;7052;51.050;3.716;2023-08-06T05:10:24;13.40;99.90
13960;DHT22;7052;51.050;3.716;2023-08-06T05:12:52;13.40;99.90
13960;DHT22;7052;51.050;3.716;2023-08-06T05:15:19;13.30;99.90
13960;DHT22;7052;51.050;3.716;2023-08-06T05:17:48;13.30;99.90
13960;DHT22;7052;51.050;3.716;2023-08-06T05:20:16;13.30;99.90
13960;DHT22;7052;51.050;3.716;2023-08-06T05:22:53;13.30;99.90
13960;DHT22;7052;51.050;3.716;2023-08-06T05:25:26;13.30;99.90
13960;DHT22;7052;51.050;3.716;2023-08-06T05:27:54;13.30;99.90
13960;DHT22;7052;51.050;3.716;2023-08-06T05:30:21;13.30;99.90
13960;DHT22;7052;51.050;3.716;2023-08-06T05:32:49;13.30;99.90
13960;DHT22;7052;51.050;3.716;2023-08-06T05:35:18;13.30;99.90
13960;DHT22;7052;51.050;3.716;2023-08-06T05:37:45;13.30;99.90
13960;DHT22;7052;51.050;3.716;2023-08-06T05:40:16;13.20;99.90
13960;DHT22;7052;51.050;3.716;2023-08-06T05:42:44;13.30;99.90
13960;DHT22;7052;51.050;3.716;2023-08-06T05:45:11;13.30;99.90
13960;DHT22;7052;51.050;3.716;2023-08-06T05:47:39;13.30;99.90
13960;DHT22;7052;51.050;3.716;2023-08-06T05:50:07;13.30;99.90
13960;DHT22;7052;51.050;3.716;2023-08-06T05:52:35;13.40;99.90
13960;DHT22;7052;51.050;3.716;2023-08-06T05:55:03;13.40;99.90
13960;DHT22;7052;51.050;3.716;2023-08-06T05:57:32;13.40;99.90
13960;DHT22;7052;51.050;3.716;2023-08-06T05:59:59;13.50;99.90
13960;DHT22;7052;51.050;3.716;2023-08-06T06:02:26;13.50;99.90
13960;DHT22;7052;51.050;3.716;2023-08-06T06:04:53;13.60;99.90
13960;DHT22;7052;51.050;3.716;2023-08-06T06:07:23;13.50;99.90
13960;DHT22;7052;51.050;3.716;2023-08-06T06:09:50;13.60;99.90
13960;DHT22;7052;51.050;3.716;2023-08-06T06:12:22;13.60;99.90
13960;DHT22;7052;51.050;3.716;2023-08-06T06:14:52;13.60;99.90
13960;DHT22;7052;51.050;3.716;2023-08-06T06:17:20;13.60;99.90
13960;DHT22;7052;51.050;3.716;2023-08-06T06:19:50;13.60;99.90
13960;DHT22;7052;51.050;3.716;2023-08-06T06:22:17;13.70;99.90
13960;DHT22;7052;51.050;3.716;2023-08-06T06:24:44;13.70;99.90
13960;DHT22;7052;51.050;3.716;2023-08-06T06:27:12;13.70;99.90
13960;DHT22;7052;51.050;3.716;2023-08-06T06:29:40;13.70;99.90
13960;DHT22;7052;51.050;3.716;2023-08-06T06:32:09;13.70;99.90
13960;DHT22;7052;51.050;3.716;2023-08-06T06:34:38;13.60;99.90
13960;DHT22;7052;51.050;3.716;2023-08-06T06:37:05;13.60;99.90
13960;DHT22;7052;51.050;3.716;2023-08-06T06:39:33;13.60;99.90
13960;DHT22;7052;51.050;3.716;2023-08-06T06:42:02;13.50;99.90
13960;DHT22;7052;51.050;3.716;2023-08-06T06:44:32;13.50;99.90
13960;DHT22;7052;51.050;3.716;2023-08-06T06:46:59;13.50;99.90
13960;DHT22;7052;51.050;3.716;2023-08-06T06:49:28;13.50;99.90
13960;DHT22;7052;51.050;3.716;2023-08-06T06:51:58;13.60;99.90
13960;DHT22;7052;51.050;3.716;2023-08-06T06:54:25;13.60;99.90
13960;DHT22;7052;51.050;3.716;2023-08-06T06:56:52;13.60;99.90
13960;DHT22;7052;51.050;3.716;2023-08-06T06:59:19;13.70;99.90
13960;DHT22;7052;51.050;3.716;2023-08-06T07:01:46;13.70;99.90
13960;DHT22;7052;51.050;3.716;2023-08-06T07:04:14;13.70;99.90
13960;DHT22;7052;51.050;3.716;2023-08-06T07:06:42;13.70;99.90
13960;DHT22;7052;51.050;3.716;2023-08-06T07:09:09;13.60;99.90
13960;DHT22;7052;51.050;3.716;2023-08-06T07:11:39;13.60;99.90
13960;DHT22;7052;51.050;3.716;2023-08-06T07:14:09;13.60;99.90
13960;DHT22;7052;51.050;3.716;2023-08-06T07:16:36;13.70;99.90
13960;DHT22;7052;51.050;3.716;2023-08-06T07:19:05;13.70;99.90
13960;DHT22;7052;51.050;3.716;2023-08-06T07:21:32;13.70;99.90
13960;DHT22;7052;51.050;3.716;2023-08-06T07:24:00;13.60;99.90
13960;DHT22;7052;51.050;3.716;2023-08-06T07:26:28;13.60;99.90
13960;DHT22;7052;51.050;3.716;2023-08-06T07:28:57;13.50;99.90
13960;DHT22;7052;51.050;3.716;2023-08-06T07:31:25;13.50;99.90
13960;DHT22;7052;51.050;3.716;2023-08-06T07:33:52;13.40;99.90
13960;DHT22;7052;51.050;3.716;2023-08-06T07:36:20;13.50;99.90
13960;DHT22;7052;51.050;3.716;2023-08-06T07:38:47;13.50;99.90
13960;DHT22;7052;51.050;3.716;2023-08-06T07:41:22;13.40;99.90
13960;DHT22;7052;51.050;3.716;2023-08-06T07:43:49;13.40;99.90
13960;DHT22;7052;51.050;3.716;2023-08-06T07:46:16;13.50;99.90
13960;DHT22;7052;51.050;3.716;2023-08-06T07:48:43;13.50;99.90
13960;DHT22;7052;51.050;3.716;2023-08-06T07:51:11;13.60;99.90
13960;DHT22;7052;51.050;3.716;2023-08-06T07:53:38;13.60;99.90
13960;DHT22;7052;51.050;3.716;2023-08-06T07:56:05;13.70;99.90
13960;DHT22;7052;51.050;3.716;2023-08-06T07:58:34;13.70;99.90
13960;DHT22;7052;51.050;3.716;2023-08-06T08:01:01;13.80;99.90
13960;DHT22;7052;51.050;3.716;2023-08-06T08:03:31;13.90;99.90
13960;DHT22;7052;51.050;3.716;2023-08-06T08:05:58;14.10;99.90
13960;DHT22;7052;51.050;3.716;2023-08-06T08:08:26;14.10;99.90
13960;DHT22;7052;51.050;3.716;2023-08-06T08:10:54;14.20;99.90
13960;DHT22;7052;51.050;3.716;2023-08-06T08:13:26;14.30;99.90
13960;DHT22;7052;51.050;3.716;2023-08-06T08:16:00;14.40;99.90
13960;DHT22;7052;51.050;3.716;2023-08-06T08:18:27;14.60;99.90
13960;DHT22;7052;51.050;3.716;2023-08-06T08:20:56;14.60;99.90
13960;DHT22;7052;51.050;3.716;2023-08-06T08:23:25;14.60;99.90
13960;DHT22;7052;51.050;3.716;2023-08-06T08:25:52;14.70;99.90
13960;DHT22;7052;51.050;3.716;2023-08-06T08:28:22;15.00;99.90
13960;DHT22;7052;51.050;3.716;2023-08-06T08:30:49;15.20;99.90
13960;DHT22;7052;51.050;3.716;2023-08-06T08:33:18;15.30;99.90
13960;DHT22;7052;51.050;3.716;2023-08-06T08:35:47;15.40;99.90
13960;DHT22;7052;51.050;3.716;2023-08-06T08:38:14;15.60;99.90
13960;DHT22;7052;51.050;3.716;2023-08-06T08:40:46;15.70;99.90
13960;DHT22;7052;51.050;3.716;2023-08-06T08:43:14;15.70;99.90
13960;DHT22;7052;51.050;3.716;2023-08-06T08:45:42;15.60;99.90
13960;DHT22;7052;51.050;3.716;2023-08-06T08:48:18;15.70;99.90
13960;DHT22;7052;51.050;3.716;2023-08-06T08:50:48;15.80;99.90
13960;DHT22;7052;51.050;3.716;2023-08-06T08:53:19;15.80;99.90
13960;DHT22;7052;51.050;3.716;2023-08-06T08:55:53;15.70;99.90
13960;DHT22;7052;51.050;3.716;2023-08-06T08:58:23;15.60;99.90
13960;DHT22;7052;51.050;3.716;2023-08-06T09:00:51;15.60;99.90
13960;DHT22;7052;51.050;3.716;2023-08-06T09:03:25;15.60;99.90
13960;DHT22;7052;51.050;3.716;2023-08-06T09:05:54;15.50;99.90
13960;DHT22;7052;51.050;3.716;2023-08-06T09:08:29;15.60;99.90
13960;DHT22;7052;51.050;3.716;2023-08-06T09:11:00;15.70;99.90
13960;DHT22;7052;51.050;3.716;2023-08-06T09:13:28;15.70;99.90
13960;DHT22;7052;51.050;3.716;2023-08-06T09:15:56;15.70;99.90
13960;DHT22;7052;51.050;3.716;2023-08-06T09:18:30;15.70;99.90
13960;DHT22;7052;51.050;3.716;2023-08-06T09:20:58;15.80;99.90
13960;DHT22;7052;51.050;3.716;2023-08-06T09:23:28;15.80;99.90
13960;DHT22;7052;51.050;3.716;2023-08-06T09:25:58;15.80;99.90
13960;DHT22;7052;51.050;3.716;2023-08-06T09:28:36;15.90;99.90
13960;DHT22;7052;51.050;3.716;2023-08-06T09:31:08;15.80;99.90
13960;DHT22;7052;51.050;3.716;2023-08-06T09:33:38;15.80;99.90
13960;DHT22;7052;51.050;3.716;2023-08-06T09:36:10;15.80;99.90
13960;DHT22;7052;51.050;3.716;2023-08-06T09:38:38;15.70;99.90
13960;DHT22;7052;51.050;3.716;2023-08-06T09:41:06;15.50;99.90
13960;DHT22;7052;51.050;3.716;2023-08-06T09:43:40;15.50;99.90
13960;DHT22;7052;51.050;3.716;2023-08-06T09:46:11;15.40;99.90
13960;DHT22;7052;51.050;3.716;2023-08-06T09:48:47;15.40;99.90
13960;DHT22;7052;51.050;3.716;2023-08-06T09:51:14;15.40;99.90
13960;DHT22;7052;51.050;3.716;2023-08-06T09:53:51;15.40;99.90
13960;DHT22;7052;51.050;3.716;2023-08-06T09:56:19;15.30;99.90
13960;DHT22;7052;51.050;3.716;2023-08-06T09:58:51;15.30;99.90
13960;DHT22;7052;51.050;3.716;2023-08-06T10:01:19;15.30;99.90
13960;DHT22;7052;51.050;3.716;2023-08-06T10:03:48;15.30;99.90
13960;DHT22;7052;51.050;3.716;2023-08-06T10:06:17;15.40;99.90
13960;DHT22;7052;51.050;3.716;2023-08-06T10:08:46;15.50;99.90
13960;DHT22;7052;51.050;3.716;2023-08-06T10:11:15;15.60;99.90
13960;DHT22;7052;51.050;3.716;2023-08-06T10:13:45;15.80;99.90
13960;DHT22;7052;51.050;3.716;2023-08-06T10:16:12;16.00;99.90
13960;DHT22;7052;51.050;3.716;2023-08-06T10:18:41;16.10;99.90
13960;DHT22;7052;51.050;3.716;2023-08-06T10:21:10;16.20;99.90
13960;DHT22;7052;51.050;3.716;2023-08-06T10:23:40;16.40;99.90
13960;DHT22;7052;51.050;3.716;2023-08-06T10:26:07;16.50;99.90
13960;DHT22;7052;51.050;3.716;2023-08-06T10:28:35;16.50;99.90
13960;DHT22;7052;51.050;3.716;2023-08-06T10:31:05;16.50;99.90
13960;DHT22;7052;51.050;3.716;2023-08-06T10:33:43;16.60;99.90
13960;DHT22;7052;51.050;3.716;2023-08-06T10:36:12;16.70;99.90
13960;DHT22;7052;51.050;3.716;2023-08-06T10:38:46;16.70;99.90
13960;DHT22;7052;51.050;3.716;2023-08-06T10:41:23;16.90;99.90
13960;DHT22;7052;51.050;3.716;2023-08-06T10:44:05;16.90;99.90
13960;DHT22;7052;51.050;3.716;2023-08-06T10:46:35;16.90;99.90
13960;DHT22;7052;51.050;3.716;2023-08-06T10:49:02;16.80;99.90
13960;DHT22;7052;51.050;3.716;2023-08-06T10:51:31;16.70;99.90
13960;DHT22;7052;51.050;3.716;2023-08-06T10:53:59;16.60;99.90
13960;DHT22;7052;51.050;3.716;2023-08-06T10:56:27;16.60;99.90
13960;DHT22;7052;51.050;3.716;2023-08-06T10:58:55;16.50;99.90
13960;DHT22;7052;51.050;3.716;2023-08-06T11:01:29;16.50;99.90
13960;DHT22;7052;51.050;3.716;2023-08-06T11:04:02;16.30;99.90
13960;DHT22;7052;51.050;3.716;2023-08-06T11:06:33;16.20;99.90
13960;DHT22;7052;51.050;3.716;2023-08-06T11:09:03;16.20;99.90
13960;DHT22;7052;51.050;3.716;2023-08-06T11:11:30;16.00;99.90
13960;DHT22;7052;51.050;3.716;2023-08-06T11:13:58;15.80;99.90
13960;DHT22;7052;51.050;3.716;2023-08-06T11:16:27;15.60;99.90
13960;DHT22;7052;51.050;3.716;2023-08-06T11:18:54;15.50;99.90
13960;DHT22;7052;51.050;3.716;2023-08-06T11:21:23;15.50;99.90
13960;DHT22;7052;51.050;3.716;2023-08-06T11:23:53;15.60;99.90
13960;DHT22;7052;51.050;3.716;2023-08-06T11:26:23;15.70;99.90
13960;DHT22;7052;51.050;3.716;2023-08-06T11:28:53;15.80;99.90
13960;DHT22;7052;51.050;3.716;2023-08-06T11:31:22;15.90;99.90
13960;DHT22;7052;51.050;3.716;2023-08-06T11:33:53;16.10;99.90
13960;DHT22;7052;51.050;3.716;2023-08-06T11:36:31;16.20;99.90
13960;DHT22;7052;51.050;3.716;2023-08-06T11:39:00;16.30;99.90
13960;DHT22;7052;51.050;3.716;2023-08-06T11:41:28;16.30;99.90
13960;DHT22;7052;51.050;3.716;2023-08-06T11:43:57;16.40;99.90
13960;DHT22;7052;51.050;3.716;2023-08-06T11:46:25;16.40;99.90
13960;DHT22;7052;51.050;3.716;2023-08-06T11:48:52;16.50;99.90
13960;DHT22;7052;51.050;3.716;2023-08-06T11:51:33;16.70;99.90
13960;DHT22;7052;51.050;3.716;2023-08-06T11:54:03;17.00;99.90
13960;DHT22;7052;51.050;3.716;2023-08-06T11:56:30;17.10;99.90
13960;DHT22;7052;51.050;3.716;2023-08-06T11:58:57;17.10;99.90
13960;DHT22;7052;51.050;3.716;2023-08-06T12:01:25;17.00;99.90
13960;DHT22;7052;51.050;3.716;2023-08-06T12:03:58;16.90;99.90
13960;DHT22;7052;51.050;3.716;2023-08-06T12:06:28;16.80;99.90
13960;DHT22;7052;51.050;3.716;2023-08-06T12:08:55;16.80;99.90
13960;DHT22;7052;51.050;3.716;2023-08-06T12:11:26;16.90;99.90
13960;DHT22;7052;51.050;3.716;2023-08-06T12:13:54;16.90;99.90
13960;DHT22;7052;51.050;3.716;2023-08-06T12:16:23;16.90;99.90
13960;DHT22;7052;51.050;3.716;2023-08-06T12:18:50;16.90;99.90
13960;DHT22;7052;51.050;3.716;2023-08-06T12:21:17;16.90;99.90
13960;DHT22;7052;51.050;3.716;2023-08-06T12:23:46;16.80;99.90
13960;DHT22;7052;51.050;3.716;2023-08-06T12:26:16;16.70;99.90
13960;DHT22;7052;51.050;3.716;2023-08-06T12:28:44;16.70;99.90
13960;DHT22;7052;51.050;3.716;2023-08-06T12:31:11;16.70;99.90
13960;DHT22;7052;51.050;3.716;2023-08-06T12:33:43;16.50;99.90
13960;DHT22;7052;51.050;3.716;2023-08-06T12:36:10;16.50;99.90
13960;DHT22;7052;51.050;3.716;2023-08-06T12:38:37;16.50;99.90
13960;DHT22;7052;51.050;3.716;2023-08-06T12:41:04;16.70;99.90
13960;DHT22;7052;51.050;3.716;2023-08-06T12:43:31;16.90;99.90
13960;DHT22;7052;51.050;3.716;2023-08-06T12:46:03;17.00;99.90
13960;DHT22;7052;51.050;3.716;2023-08-06T12:48:30;17.00;99.90
13960;DHT22;7052;51.050;3.716;2023-08-06T12:50:57;17.20;99.90
13960;DHT22;7052;51.050;3.716;2023-08-06T12:53:24;17.10;99.90
13960;DHT22;7052;51.050;3.716;2023-08-06T12:55:51;17.10;99.90
13960;DHT22;7052;51.050;3.716;2023-08-06T12:58:19;17.00;99.90
13960;DHT22;7052;51.050;3.716;2023-08-06T13:00:48;16.90;99.90
13960;DHT22;7052;51.050;3.716;2023-08-06T13:03:16;16.90;99.90
13960;DHT22;7052;51.050;3.716;2023-08-06T13:05:43;16.90;99.90
13960;DHT22;7052;51.050;3.716;2023-08-06T13:08:12;17.10;99.90
13960;DHT22;7052;51.050;3.716;2023-08-06T13:10:39;17.20;99.90
13960;DHT22;7052;51.050;3.716;2023-08-06T13:13:07;17.30;99.90
13960;DHT22;7052;51.050;3.716;2023-08-06T13:15:35;17.50;99.90
13960;DHT22;7052;51.050;3.716;2023-08-06T13:18:07;17.30;99.90
13960;DHT22;7052;51.050;3.716;2023-08-06T13:20:38;17.20;99.90
13960;DHT22;7052;51.050;3.716;2023-08-06T13:23:07;17.10;99.90
13960;DHT22;7052;51.050;3.716;2023-08-06T13:25:34;17.10;99.90
13960;DHT22;7052;51.050;3.716;2023-08-06T13:28:03;16.90;99.90
13960;DHT22;7052;51.050;3.716;2023-08-06T13:30:30;16.80;99.90
13960;DHT22;7052;51.050;3.716;2023-08-06T13:33:01;16.80;99.90
13960;DHT22;7052;51.050;3.716;2023-08-06T13:35:30;16.80;99.90
13960;DHT22;7052;51.050;3.716;2023-08-06T13:38:00;16.80;99.90
13960;DHT22;7052;51.050;3.716;2023-08-06T13:40:31;16.80;99.90
13960;DHT22;7052;51.050;3.716;2023-08-06T13:42:59;16.70;99.90
13960;DHT22;7052;51.050;3.716;2023-08-06T13:45:27;16.90;99.90
13960;DHT22;7052;51.050;3.716;2023-08-06T13:47:55;16.90;99.90
13960;DHT22;7052;51.050;3.716;2023-08-06T13:50:22;17.00;99.90
13960;DHT22;7052;51.050;3.716;2023-08-06T13:52:51;17.00;99.90
13960;DHT22;7052;51.050;3.716;2023-08-06T13:55:22;17.00;99.90
13960;DHT22;7052;51.050;3.716;2023-08-06T13:57:49;17.10;99.90
13960;DHT22;7052;51.050;3.716;2023-08-06T14:00:20;17.20;99.90
13960;DHT22;7052;51.050;3.716;2023-08-06T14:02:51;17.20;99.90
13960;DHT22;7052;51.050;3.716;2023-08-06T14:05:18;17.20;99.90
13960;DHT22;7052;51.050;3.716;2023-08-06T14:07:45;17.30;99.90
13960;DHT22;7052;51.050;3.716;2023-08-06T14:10:14;17.40;99.90
13960;DHT22;7052;51.050;3.716;2023-08-06T14:12:46;17.50;99.90
13960;DHT22;7052;51.050;3.716;2023-08-06T14:15:13;17.60;99.90
13960;DHT22;7052;51.050;3.716;2023-08-06T14:17:42;17.80;99.90
13960;DHT22;7052;51.050;3.716;2023-08-06T14:20:09;17.90;99.90
13960;DHT22;7052;51.050;3.716;2023-08-06T14:22:37;18.20;99.90
13960;DHT22;7052;51.050;3.716;2023-08-06T14:25:05;18.20;99.90
13960;DHT22;7052;51.050;3.716;2023-08-06T14:27:33;18.30;99.90
13960;DHT22;7052;51.050;3.716;2023-08-06T14:30:03;18.40;99.90
13960;DHT22;7052;51.050;3.716;2023-08-06T14:32:30;18.60;99.90
13960;DHT22;7052;51.050;3.716;2023-08-06T14:34:58;18.70;99.90
13960;DHT22;7052;51.050;3.716;2023-08-06T14:37:27;18.80;99.90
13960;DHT22;7052;51.050;3.716;2023-08-06T14:39:55;18.80;99.90
13960;DHT22;7052;51.050;3.716;2023-08-06T14:42:22;18.80;99.90
13960;DHT22;7052;51.050;3.716;2023-08-06T14:44:50;18.90;99.90
13960;DHT22;7052;51.050;3.716;2023-08-06T14:47:20;19.00;99.90
13960;DHT22;7052;51.050;3.716;2023-08-06T14:49:47;19.00;99.90
13960;DHT22;7052;51.050;3.716;2023-08-06T14:52:16;19.00;99.90
13960;DHT22;7052;51.050;3.716;2023-08-06T14:54:43;19.00;99.90
13960;DHT22;7052;51.050;3.716;2023-08-06T14:57:10;18.90;99.90
13960;DHT22;7052;51.050;3.716;2023-08-06T14:59:39;18.70;99.90
13960;DHT22;7052;51.050;3.716;2023-08-06T15:02:07;18.70;99.90
13960;DHT22;7052;51.050;3.716;2023-08-06T15:04:36;18.70;99.90
13960;DHT22;7052;51.050;3.716;2023-08-06T15:07:03;18.80;99.90
13960;DHT22;7052;51.050;3.716;2023-08-06T15:09:36;18.80;99.90
13960;DHT22;7052;51.050;3.716;2023-08-06T15:12:05;18.70;99.90
13960;DHT22;7052;51.050;3.716;2023-08-06T15:14:33;18.70;99.90
13960;DHT22;7052;51.050;3.716;2023-08-06T15:17:00;18.70;99.90
13960;DHT22;7052;51.050;3.716;2023-08-06T15:19:28;18.80;99.90
13960;DHT22;7052;51.050;3.716;2023-08-06T15:21:58;18.80;99.90
13960;DHT22;7052;51.050;3.716;2023-08-06T15:24:25;18.90;99.90
13960;DHT22;7052;51.050;3.716;2023-08-06T15:26:52;19.00;99.50
13960;DHT22;7052;51.050;3.716;2023-08-06T15:29:21;19.00;99.20
13960;DHT22;7052;51.050;3.716;2023-08-06T15:31:48;18.90;99.90
13960;DHT22;7052;51.050;3.716;2023-08-06T15:34:15;18.80;97.70
13960;DHT22;7052;51.050;3.716;2023-08-06T15:36:44;18.80;98.80
13960;DHT22;7052;51.050;3.716;2023-08-06T15:39:16;18.80;98.80
13960;DHT22;7052;51.050;3.716;2023-08-06T15:41:43;18.70;98.80
13960;DHT22;7052;51.050;3.716;2023-08-06T15:44:10;18.60;99.50
13960;DHT22;7052;51.050;3.716;2023-08-06T15:46:37;18.40;99.30
13960;DHT22;7052;51.050;3.716;2023-08-06T15:49:04;18.30;99.90
13960;DHT22;7052;51.050;3.716;2023-08-06T15:51:32;18.20;99.90
13960;DHT22;7052;51.050;3.716;2023-08-06T15:54:03;18.20;99.50